createdAt,value
2024-04-18T00:00:53.714Z,95213.00
2024-04-18T00:01:53.611Z,95211.00
2024-04-18T00:02:53.621Z,95212.00
2024-04-18T00:03:53.795Z,95211.00
2024-04-18T00:04:53.779Z,95207.00
2024-04-18T00:05:53.731Z,95206.00
2024-04-18T00:06:53.768Z,95204.00
2024-04-18T00:07:53.742Z,95202.00
2024-04-18T00:08:53.763Z,95196.00
2024-04-18T00:09:53.766Z,95195.00
2024-04-18T00:10:53.883Z,95196.00
2024-04-18T00:11:53.898Z,95195.00
2024-04-18T00:12:53.933Z,95194.00
2024-04-18T00:13:54.018Z,95194.00
2024-04-18T00:14:54.069Z,95196.00
2024-04-18T00:15:54.204Z,95197.00
2024-04-18T00:16:54.225Z,95195.00
2024-04-18T00:17:54.715Z,95196.00
2024-04-18T00:18:54.389Z,95198.00
2024-04-18T00:19:54.437Z,95198.00
2024-04-18T00:20:54.503Z,95197.00
2024-04-18T00:21:54.563Z,95198.00
2024-04-18T00:22:54.640Z,95198.00
2024-04-18T00:23:54.689Z,95197.00
2024-04-18T00:24:54.737Z,95198.00
2024-04-18T00:25:54.803Z,95199.00
2024-04-18T00:26:54.865Z,95199.00
2024-04-18T00:27:54.924Z,95201.00
2024-04-18T00:28:54.970Z,95202.00
2024-04-18T00:29:55.028Z,95200.00
2024-04-18T00:30:55.115Z,95199.00
2024-04-18T00:31:55.272Z,95200.00
2024-04-18T00:32:55.241Z,95200.00
2024-04-18T00:33:55.310Z,95200.00
2024-04-18T00:34:55.300Z,95202.00
2024-04-18T00:35:55.389Z,95199.00
2024-04-18T00:36:55.414Z,95200.00
2024-04-18T00:37:55.497Z,95200.00
2024-04-18T00:38:55.586Z,95201.00
2024-04-18T00:39:55.671Z,95202.00
2024-04-18T00:40:55.625Z,95202.00
2024-04-18T00:41:55.722Z,95202.00
2024-04-18T00:42:55.729Z,95202.00
2024-04-18T00:43:55.840Z,95200.00
2024-04-18T00:44:55.846Z,95199.00
2024-04-18T00:45:55.928Z,95200.00
2024-04-18T00:46:55.954Z,95201.00
2024-04-18T00:47:55.996Z,95200.00
2024-04-18T00:48:56.121Z,95204.00
2024-04-18T00:49:56.082Z,95204.00
2024-04-18T00:50:56.132Z,95206.00
2024-04-18T00:51:56.204Z,95205.00
2024-04-18T00:52:56.242Z,95205.00
2024-04-18T00:53:56.324Z,95206.00
2024-04-18T00:54:56.316Z,95203.00
2024-04-18T00:55:56.371Z,95201.00
2024-04-18T00:56:56.434Z,95201.00
2024-04-18T00:57:56.446Z,95200.00
2024-04-18T00:58:56.453Z,95198.00
2024-04-18T00:59:56.494Z,95200.00
2024-04-18T01:00:56.621Z,95198.00
2024-04-18T01:01:56.579Z,95199.00
2024-04-18T01:02:56.620Z,95200.00
2024-04-18T01:03:56.911Z,95199.00
2024-04-18T01:04:56.703Z,95201.00
2024-04-18T01:05:56.700Z,95199.00
2024-04-18T01:06:56.754Z,95199.00
2024-04-18T01:07:56.960Z,95201.00
2024-04-18T01:08:56.837Z,95200.00
2024-04-18T01:09:56.872Z,95199.00
2024-04-18T01:10:56.935Z,95197.00
2024-04-18T01:11:56.957Z,95199.00
2024-04-18T01:12:56.972Z,95197.00
2024-04-18T01:13:57.005Z,95199.00
2024-04-18T01:14:57.139Z,95200.00
2024-04-18T01:15:57.094Z,95198.00
2024-04-18T01:16:57.118Z,95200.00
2024-04-18T01:17:57.263Z,95200.00
2024-04-18T01:18:57.241Z,95200.00
2024-04-18T01:19:57.221Z,95200.00
2024-04-18T01:20:57.246Z,95199.00
2024-04-18T01:21:59.502Z,95202.00
2024-04-18T01:22:57.287Z,95204.00
2024-04-18T01:23:57.285Z,95202.00
2024-04-18T01:24:57.339Z,95203.00
2024-04-18T01:25:57.275Z,95202.00
2024-04-18T01:26:57.283Z,95202.00
2024-04-18T01:27:57.277Z,95202.00
2024-04-18T01:28:57.282Z,95201.00
2024-04-18T01:29:57.294Z,95202.00
2024-04-18T01:31:04.948Z,95204.00
2024-04-18T01:32:04.933Z,95199.00
2024-04-18T01:33:05.016Z,95201.00
2024-04-18T01:34:04.976Z,95202.00
2024-04-18T01:35:04.910Z,95205.00
2024-04-18T01:36:04.917Z,95203.00
2024-04-18T01:37:04.923Z,95204.00
2024-04-18T01:38:04.923Z,95206.00
2024-04-18T01:39:04.930Z,95206.00
2024-04-18T01:40:04.935Z,95208.00
2024-04-18T01:41:04.943Z,95207.00
2024-04-18T01:42:04.932Z,95205.00
2024-04-18T01:43:04.937Z,95207.00
2024-04-18T01:44:04.930Z,95206.00
2024-04-18T01:45:04.947Z,95206.00
2024-04-18T01:46:04.948Z,95205.00
2024-04-18T01:47:04.940Z,95205.00
2024-04-18T01:48:05.090Z,95206.00
2024-04-18T01:49:04.964Z,95203.00
2024-04-18T01:50:04.968Z,95206.00
2024-04-18T01:51:04.967Z,95205.00
2024-04-18T01:52:04.967Z,95208.00
2024-04-18T01:53:05.040Z,95208.00
2024-04-18T01:54:04.950Z,95206.00
2024-04-18T01:55:04.971Z,95207.00
2024-04-18T01:56:04.967Z,95205.00
2024-04-18T01:57:04.964Z,95206.00
2024-04-18T01:58:04.956Z,95206.00
2024-04-18T01:59:04.961Z,95208.00
2024-04-18T02:00:04.958Z,95209.00
2024-04-18T02:01:05.067Z,95208.00
2024-04-18T02:02:04.957Z,95208.00
2024-04-18T02:03:04.986Z,95209.00
2024-04-18T02:04:05.115Z,95210.00
2024-04-18T02:05:05.048Z,95212.00
2024-04-18T02:06:05.011Z,95210.00
2024-04-18T02:07:05.022Z,95211.00
2024-04-18T02:08:05.072Z,95212.00
2024-04-18T02:09:05.113Z,95212.00
2024-04-18T02:10:05.168Z,95213.00
2024-04-18T02:11:05.279Z,95212.00
2024-04-18T02:12:05.153Z,95212.00
2024-04-18T02:13:05.232Z,95213.00
2024-04-18T02:14:05.213Z,95214.00
2024-04-18T02:15:05.220Z,95214.00
2024-04-18T02:16:05.291Z,95214.00
2024-04-18T02:17:05.272Z,95214.00
2024-04-18T02:18:05.307Z,95213.00
2024-04-18T02:19:05.329Z,95213.00
2024-04-18T02:20:05.309Z,95215.00
2024-04-18T02:21:05.380Z,95215.00
2024-04-18T02:22:05.409Z,95217.00
2024-04-18T02:23:05.436Z,95216.00
2024-04-18T02:24:05.460Z,95217.00
2024-04-18T02:25:05.469Z,95219.00
2024-04-18T02:26:05.500Z,95219.00
2024-04-18T02:27:05.519Z,95219.00
2024-04-18T02:28:05.531Z,95218.00
2024-04-18T02:29:05.556Z,95217.00
2024-04-18T02:30:05.564Z,95218.00
2024-04-18T02:31:05.614Z,95219.00
2024-04-18T02:32:05.623Z,95219.00
2024-04-18T02:33:05.642Z,95219.00
2024-04-18T02:34:05.654Z,95219.00
2024-04-18T02:35:05.657Z,95220.00
2024-04-18T02:36:05.659Z,95221.00
2024-04-18T02:37:05.672Z,95221.00
2024-04-18T02:38:05.679Z,95222.00
2024-04-18T02:39:05.684Z,95220.00
2024-04-18T02:40:05.703Z,95220.00
2024-04-18T02:41:05.734Z,95219.00
2024-04-18T02:42:05.737Z,95220.00
2024-04-18T02:43:05.739Z,95219.00
2024-04-18T02:44:05.761Z,95215.00
2024-04-18T02:45:05.760Z,95220.00
2024-04-18T02:46:05.775Z,95217.00
2024-04-18T02:47:05.785Z,95217.00
2024-04-18T02:48:05.822Z,95218.00
2024-04-18T02:49:05.868Z,95217.00
2024-04-18T02:50:05.824Z,95216.00
2024-04-18T02:51:05.833Z,95213.00
2024-04-18T02:52:05.843Z,95215.00
2024-04-18T02:53:05.879Z,95213.00
2024-04-18T02:54:05.888Z,95213.00
2024-04-18T02:55:05.907Z,95212.00
2024-04-18T02:56:05.902Z,95211.00
2024-04-18T02:57:05.905Z,95214.00
2024-04-18T02:58:07.735Z,95214.00
2024-04-18T02:59:05.949Z,95215.00
2024-04-18T03:00:05.944Z,95215.00
2024-04-18T03:01:06.061Z,95215.00
2024-04-18T03:02:05.936Z,95215.00
2024-04-18T03:03:05.989Z,95216.00
2024-04-18T03:04:06.022Z,95215.00
2024-04-18T03:05:05.935Z,95214.00
2024-04-18T03:06:05.975Z,95215.00
2024-04-18T03:07:05.941Z,95217.00
2024-04-18T03:08:05.954Z,95215.00
2024-04-18T03:09:05.965Z,95216.00
2024-04-18T03:10:05.956Z,95215.00
2024-04-18T03:11:06.014Z,95217.00
2024-04-18T03:12:05.949Z,95218.00
2024-04-18T03:13:05.956Z,95217.00
2024-04-18T03:14:05.956Z,95218.00
2024-04-18T03:15:05.954Z,95217.00
2024-04-18T03:16:06.005Z,95218.00
2024-04-18T03:17:05.985Z,95218.00
2024-04-18T03:18:06.069Z,95218.00
2024-04-18T03:19:05.990Z,95217.00
2024-04-18T03:20:05.967Z,95219.00
2024-04-18T03:21:05.995Z,95219.00
2024-04-18T03:22:05.943Z,95218.00
2024-04-18T03:23:05.945Z,95217.00
2024-04-18T03:24:05.955Z,95216.00
2024-04-18T03:25:05.958Z,95216.00
2024-04-18T03:26:05.953Z,95214.00
2024-04-18T03:27:05.971Z,95215.00
2024-04-18T03:28:05.974Z,95217.00
2024-04-18T03:29:05.968Z,95215.00
2024-04-18T03:30:05.961Z,95217.00
2024-04-18T03:31:06.017Z,95215.00
2024-04-18T03:32:06.052Z,95215.00
2024-04-18T03:33:05.992Z,95216.00
2024-04-18T03:34:05.972Z,95216.00
2024-04-18T03:35:05.999Z,95215.00
2024-04-18T03:36:05.984Z,95217.00
2024-04-18T03:37:05.967Z,95214.00
2024-04-18T03:38:05.990Z,95216.00
2024-04-18T03:39:05.973Z,95217.00
2024-04-18T03:40:05.967Z,95218.00
2024-04-18T03:41:05.965Z,95218.00
2024-04-18T03:42:05.978Z,95217.00
2024-04-18T03:43:05.977Z,95220.00
2024-04-18T03:44:05.981Z,95218.00
2024-04-18T03:45:05.994Z,95221.00
2024-04-18T03:46:06.010Z,95220.00
2024-04-18T03:47:06.021Z,95218.00
2024-04-18T03:48:06.035Z,95218.00
2024-04-18T03:49:06.158Z,95221.00
2024-04-18T03:50:05.986Z,95221.00
2024-04-18T03:51:05.994Z,95222.00
2024-04-18T03:52:05.992Z,95222.00
2024-04-18T03:53:05.987Z,95223.00
2024-04-18T03:54:05.994Z,95222.00
2024-04-18T03:55:06.019Z,95224.00
2024-04-18T03:56:05.990Z,95226.00
2024-04-18T03:57:05.992Z,95224.00
2024-04-18T03:58:05.994Z,95226.00
2024-04-18T03:59:05.986Z,95228.00
2024-04-18T04:00:06.028Z,95229.00
2024-04-18T04:01:06.109Z,95228.00
2024-04-18T04:02:06.060Z,95232.00
2024-04-18T04:03:06.008Z,95233.00
2024-04-18T04:04:06.125Z,95234.00
2024-04-18T04:05:05.982Z,95237.00
2024-04-18T04:06:06.006Z,95240.00
2024-04-18T04:07:05.995Z,95240.00
2024-04-18T04:08:05.991Z,95242.00
2024-04-18T04:09:05.999Z,95241.00
2024-04-18T04:10:05.992Z,95243.00
2024-04-18T04:11:06.010Z,95246.00
2024-04-18T04:12:05.993Z,95246.00
2024-04-18T04:13:06.001Z,95247.00
2024-04-18T04:14:06.009Z,95249.00
2024-04-18T04:15:05.985Z,95251.00
2024-04-18T04:16:06.024Z,95250.00
2024-04-18T04:17:13.383Z,95252.00
2024-04-18T04:18:06.080Z,95252.00
2024-04-18T04:19:06.079Z,95251.00
2024-04-18T04:20:05.983Z,95251.00
2024-04-18T04:21:05.992Z,95248.00
2024-04-18T04:22:05.985Z,95250.00
2024-04-18T04:23:06.001Z,95251.00
2024-04-18T04:24:06.003Z,95253.00
2024-04-18T04:25:06.009Z,95251.00
2024-04-18T04:26:06.023Z,95254.00
2024-04-18T04:27:05.982Z,95254.00
2024-04-18T04:28:06.001Z,95254.00
2024-04-18T04:29:06.001Z,95254.00
2024-04-18T04:30:06.002Z,95256.00
2024-04-18T04:31:08.413Z,95256.00
2024-04-18T04:32:06.046Z,95255.00
2024-04-18T04:33:06.053Z,95256.00
2024-04-18T04:34:06.059Z,95260.00
2024-04-18T04:35:06.773Z,95259.00
2024-04-18T04:36:06.057Z,95259.00
2024-04-18T04:37:06.053Z,95260.00
2024-04-18T04:38:06.077Z,95263.00
2024-04-18T04:39:06.082Z,95262.00
2024-04-18T04:40:06.107Z,95263.00
2024-04-18T04:41:06.118Z,95265.00
2024-04-18T04:42:06.153Z,95265.00
2024-04-18T04:43:06.195Z,95266.00
2024-04-18T04:44:06.231Z,95267.00
2024-04-18T04:45:06.210Z,95266.00
2024-04-18T04:46:06.262Z,95268.00
2024-04-18T04:47:06.256Z,95269.00
2024-04-18T04:48:06.407Z,95270.00
2024-04-18T04:49:06.332Z,95273.00
2024-04-18T04:50:06.307Z,95276.00
2024-04-18T04:51:16.362Z,95275.00
2024-04-18T04:52:06.316Z,95275.00
2024-04-18T04:53:06.327Z,95277.00
2024-04-18T04:54:06.306Z,95279.00
2024-04-18T04:55:06.321Z,95278.00
2024-04-18T04:56:06.326Z,95278.00
2024-04-18T04:57:06.314Z,95279.00
2024-04-18T04:58:06.320Z,95281.00
2024-04-18T04:59:06.319Z,95280.00
2024-04-18T05:00:06.328Z,95283.00
2024-04-18T05:01:06.385Z,95284.00
2024-04-18T05:02:06.384Z,95287.00
2024-04-18T05:03:06.340Z,95289.00
2024-04-18T05:04:06.441Z,95289.00
2024-04-18T05:05:06.326Z,95292.00
2024-04-18T05:06:06.328Z,95293.00
2024-04-18T05:07:06.325Z,95296.00
2024-04-18T05:08:06.329Z,95294.00
2024-04-18T05:09:06.347Z,95295.00
2024-04-18T05:10:06.336Z,95295.00
2024-04-18T05:11:11.399Z,95297.00
2024-04-18T05:12:06.343Z,95296.00
2024-04-18T05:13:06.328Z,95296.00
2024-04-18T05:14:06.335Z,95296.00
2024-04-18T05:15:06.328Z,95295.00
2024-04-18T05:16:06.392Z,95296.00
2024-04-18T05:17:06.341Z,95297.00
2024-04-18T05:18:06.414Z,95295.00
2024-04-18T05:19:06.348Z,95297.00
2024-04-18T05:20:06.327Z,95298.00
2024-04-18T05:21:06.332Z,95301.00
2024-04-18T05:22:06.367Z,95303.00
2024-04-18T05:23:06.344Z,95303.00
2024-04-18T05:24:06.327Z,95307.00
2024-04-18T05:25:06.329Z,95307.00
2024-04-18T05:26:06.334Z,95306.00
2024-04-18T05:27:06.340Z,95307.00
2024-04-18T05:28:06.344Z,95308.00
2024-04-18T05:29:06.333Z,95308.00
2024-04-18T05:30:06.329Z,95304.00
2024-04-18T05:31:06.604Z,95305.00
2024-04-18T05:32:06.387Z,95306.00
2024-04-18T05:33:06.382Z,95305.00
2024-04-18T05:34:06.407Z,95308.00
2024-04-18T05:35:06.387Z,95307.00
2024-04-18T05:36:06.411Z,95309.00
2024-04-18T05:37:06.896Z,95309.00
2024-04-18T05:38:06.443Z,95310.00
2024-04-18T05:39:06.428Z,95310.00
2024-04-18T05:40:06.557Z,95310.00
2024-04-18T05:41:06.475Z,95311.00
2024-04-18T05:42:06.485Z,95310.00
2024-04-18T05:43:06.483Z,95312.00
2024-04-18T05:44:06.517Z,95312.00
2024-04-18T05:45:06.529Z,95314.00
2024-04-18T05:46:06.534Z,95317.00
2024-04-18T05:47:06.591Z,95318.00
2024-04-18T05:48:06.645Z,95319.00
2024-04-18T05:49:06.548Z,95320.00
2024-04-18T05:50:06.572Z,95320.00
2024-04-18T05:51:06.559Z,95323.00
2024-04-18T05:52:06.644Z,95322.00
2024-04-18T05:53:06.589Z,95324.00
2024-04-18T05:54:06.604Z,95325.00
2024-04-18T05:55:06.612Z,95326.00
2024-04-18T05:56:06.611Z,95326.00
2024-04-18T05:57:06.615Z,95325.00
2024-04-18T05:58:06.633Z,95327.00
2024-04-18T05:59:06.663Z,95326.00
2024-04-18T06:00:06.670Z,95327.00
2024-04-18T06:01:06.862Z,95328.00
2024-04-18T06:02:08.099Z,95328.00
2024-04-18T06:03:06.788Z,95330.00
2024-04-18T06:04:14.373Z,95332.00
2024-04-18T06:05:14.313Z,95333.00
2024-04-18T06:06:14.343Z,95333.00
2024-04-18T06:07:14.310Z,95335.00
2024-04-18T06:08:14.324Z,95334.00
2024-04-18T06:09:14.333Z,95338.00
2024-04-18T06:10:14.340Z,95338.00
2024-04-18T06:11:14.356Z,95338.00
2024-04-18T06:12:14.320Z,95340.00
2024-04-18T06:13:14.324Z,95344.00
2024-04-18T06:14:14.332Z,95342.00
2024-04-18T06:15:14.333Z,95343.00
2024-04-18T06:16:14.368Z,95345.00
2024-04-18T06:17:14.321Z,95345.00
2024-04-18T06:18:14.326Z,95345.00
2024-04-18T06:19:14.347Z,95344.00
2024-04-18T06:20:14.332Z,95344.00
2024-04-18T06:21:14.343Z,95344.00
2024-04-18T06:22:14.372Z,95344.00
2024-04-18T06:23:14.351Z,95346.00
2024-04-18T06:24:14.398Z,95348.00
2024-04-18T06:25:14.473Z,95349.00
2024-04-18T06:26:14.570Z,95349.00
2024-04-18T06:27:14.550Z,95350.00
2024-04-18T06:28:14.613Z,95352.00
2024-04-18T06:29:14.728Z,95352.00
2024-04-18T06:30:14.807Z,95354.00
2024-04-18T06:31:14.796Z,95352.00
2024-04-18T06:32:14.891Z,95354.00
2024-04-18T06:33:14.997Z,95355.00
2024-04-18T06:34:15.000Z,95353.00
2024-04-18T06:35:15.041Z,95354.00
2024-04-18T06:36:15.979Z,95353.00
2024-04-18T06:37:15.168Z,95356.00
2024-04-18T06:38:15.260Z,95354.00
2024-04-18T06:39:15.249Z,95355.00
2024-04-18T06:40:15.309Z,95358.00
2024-04-18T06:41:15.335Z,95356.00
2024-04-18T06:42:15.390Z,95357.00
2024-04-18T06:43:15.423Z,95359.00
2024-04-18T06:44:15.584Z,95358.00
2024-04-18T06:45:15.537Z,95359.00
2024-04-18T06:46:15.675Z,95359.00
2024-04-18T06:47:15.687Z,95361.00
2024-04-18T06:48:15.710Z,95365.00
2024-04-18T06:49:15.709Z,95359.00
2024-04-18T06:50:15.693Z,95366.00
2024-04-18T06:51:15.737Z,95368.00
2024-04-18T06:52:15.774Z,95370.00
2024-04-18T06:53:15.844Z,95371.00
2024-04-18T06:54:15.892Z,95373.00
2024-04-18T06:55:15.930Z,95372.00
2024-04-18T06:56:16.438Z,95375.00
2024-04-18T06:57:15.977Z,95374.00
2024-04-18T06:58:16.012Z,95374.00
2024-04-18T06:59:16.064Z,95372.00
2024-04-18T07:00:16.102Z,95372.00
2024-04-18T07:01:16.238Z,95374.00
2024-04-18T07:02:16.261Z,95373.00
2024-04-18T07:03:16.307Z,95376.00
2024-04-18T07:04:16.381Z,95377.00
2024-04-18T07:05:16.366Z,95375.00
2024-04-18T07:06:16.399Z,95375.00
2024-04-18T07:07:16.392Z,95374.00
2024-04-18T07:08:16.433Z,95373.00
2024-04-18T07:09:16.436Z,95375.00
2024-04-18T07:10:16.476Z,95376.00
2024-04-18T07:11:16.514Z,95377.00
2024-04-18T07:12:16.520Z,95378.00
2024-04-18T07:13:16.560Z,95379.00
2024-04-18T07:14:16.586Z,95380.00
2024-04-18T07:15:16.608Z,95381.00
2024-04-18T07:16:16.664Z,95381.00
2024-04-18T07:17:16.708Z,95381.00
2024-04-18T07:18:16.790Z,95381.00
2024-04-18T07:19:16.768Z,95382.00
2024-04-18T07:20:16.745Z,95380.00
2024-04-18T07:21:16.748Z,95381.00
2024-04-18T07:22:16.787Z,95378.00
2024-04-18T07:23:16.804Z,95380.00
2024-04-18T07:24:16.840Z,95377.00
2024-04-18T07:25:16.846Z,95379.00
2024-04-18T07:26:16.884Z,95382.00
2024-04-18T07:27:16.918Z,95381.00
2024-04-18T07:28:16.924Z,95383.00
2024-04-18T07:29:16.931Z,95382.00
2024-04-18T07:30:17.131Z,95382.00
2024-04-18T07:31:17.022Z,95384.00
2024-04-18T07:32:17.096Z,95384.00
2024-04-18T07:33:17.147Z,95387.00
2024-04-18T07:34:17.202Z,95388.00
2024-04-18T07:35:17.141Z,95390.00
2024-04-18T07:36:17.200Z,95392.00
2024-04-18T07:37:17.191Z,95396.00
2024-04-18T07:38:17.253Z,95394.00
2024-04-18T07:39:17.296Z,95399.00
2024-04-18T07:40:17.313Z,95399.00
2024-04-18T07:41:20.958Z,95399.00
2024-04-18T07:42:17.336Z,95399.00
2024-04-18T07:43:17.353Z,95400.00
2024-04-18T07:44:20.023Z,95398.00
2024-04-18T07:45:17.355Z,95400.00
2024-04-18T07:46:20.940Z,95399.00
2024-04-18T07:47:17.363Z,95401.00
2024-04-18T07:48:17.492Z,95399.00
2024-04-18T07:49:17.585Z,95402.00
2024-04-18T07:50:17.342Z,95401.00
2024-04-18T07:51:21.058Z,95402.00
2024-04-18T07:52:17.888Z,95403.00
2024-04-18T07:53:17.358Z,95402.00
2024-04-18T07:54:17.368Z,95404.00
2024-04-18T07:55:17.373Z,95405.00
2024-04-18T07:56:21.392Z,95405.00
2024-04-18T07:57:17.675Z,95405.00
2024-04-18T07:58:17.749Z,95405.00
2024-04-18T07:59:18.163Z,95405.00
2024-04-18T08:00:18.178Z,95406.00
2024-04-18T08:01:18.535Z,95405.00
2024-04-18T08:02:19.271Z,95408.00
2024-04-18T08:03:18.988Z,95408.00
2024-04-18T08:04:34.986Z,95406.00
2024-04-18T08:05:20.767Z,95407.00
2024-04-18T08:06:20.785Z,95412.00
2024-04-18T08:07:20.692Z,95413.00
2024-04-18T08:08:19.662Z,95413.00
2024-04-18T08:09:19.766Z,95412.00
2024-04-18T08:10:20.378Z,95414.00
2024-04-18T08:11:52.434Z,95414.00
2024-04-18T08:12:26.646Z,95417.00
2024-04-18T08:13:22.198Z,95419.00
2024-04-18T08:14:22.400Z,95421.00
2024-04-18T08:15:23.684Z,95423.00
2024-04-18T08:16:19.327Z,95420.00
2024-04-18T08:17:17.555Z,95420.00
2024-04-18T08:18:17.443Z,95422.00
2024-04-18T08:19:17.410Z,95423.00
2024-04-18T08:20:17.445Z,95426.00
2024-04-18T08:21:17.462Z,95425.00
2024-04-18T08:22:17.453Z,95425.00
2024-04-18T08:23:19.836Z,95425.00
2024-04-18T08:24:17.634Z,95430.00
2024-04-18T08:25:17.575Z,95432.00
2024-04-18T08:26:17.670Z,95432.00
2024-04-18T08:27:17.684Z,95431.00
2024-04-18T08:28:17.700Z,95429.00
2024-04-18T08:29:17.695Z,95432.00
2024-04-18T08:30:17.784Z,95435.00
2024-04-18T08:31:17.769Z,95436.00
2024-04-18T08:32:17.822Z,95436.00
2024-04-18T08:33:17.902Z,95437.00
2024-04-18T08:34:18.915Z,95435.00
2024-04-18T08:35:17.986Z,95435.00
2024-04-18T08:36:18.024Z,95438.00
2024-04-18T08:37:17.998Z,95441.00
2024-04-18T08:38:18.032Z,95442.00
2024-04-18T08:39:18.081Z,95443.00
2024-04-18T08:40:18.126Z,95443.00
2024-04-18T08:41:18.174Z,95445.00
2024-04-18T08:42:18.263Z,95445.00
2024-04-18T08:43:18.306Z,95443.00
2024-04-18T08:44:18.336Z,95446.00
2024-04-18T08:45:18.413Z,95444.00
2024-04-18T08:46:18.445Z,95446.00
2024-04-18T08:47:18.531Z,95448.00
2024-04-18T08:48:18.686Z,95444.00
2024-04-18T08:49:18.686Z,95446.00
2024-04-18T08:50:18.605Z,95450.00
2024-04-18T08:51:18.684Z,95445.00
2024-04-18T08:52:18.714Z,95448.00
2024-04-18T08:53:18.767Z,95449.00
2024-04-18T08:54:18.846Z,95449.00
2024-04-18T08:55:18.882Z,95450.00
2024-04-18T08:56:18.893Z,95450.00
2024-04-18T08:57:18.918Z,95450.00
2024-04-18T08:58:18.982Z,95453.00
2024-04-18T08:59:19.012Z,95452.00
2024-04-18T09:00:19.062Z,95453.00
2024-04-18T09:01:19.084Z,95454.00
2024-04-18T09:02:19.106Z,95457.00
2024-04-18T09:03:19.155Z,95456.00
2024-04-18T09:04:19.213Z,95458.00
2024-04-18T09:05:19.195Z,95457.00
2024-04-18T09:06:19.238Z,95458.00
2024-04-18T09:07:19.282Z,95459.00
2024-04-18T09:08:19.313Z,95460.00
2024-04-18T09:09:19.381Z,95461.00
2024-04-18T09:10:19.369Z,95464.00
2024-04-18T09:11:19.444Z,95462.00
2024-04-18T09:12:19.458Z,95465.00
2024-04-18T09:13:19.451Z,95462.00
2024-04-18T09:14:19.483Z,95463.00
2024-04-18T09:15:19.578Z,95465.00
2024-04-18T09:16:19.540Z,95463.00
2024-04-18T09:17:19.648Z,95465.00
2024-04-18T09:18:19.830Z,95462.00
2024-04-18T09:19:19.777Z,95463.00
2024-04-18T09:20:19.670Z,95466.00
2024-04-18T09:21:19.759Z,95466.00
2024-04-18T09:22:19.761Z,95468.00
2024-04-18T09:23:19.785Z,95467.00
2024-04-18T09:24:19.835Z,95470.00
2024-04-18T09:25:19.852Z,95470.00
2024-04-18T09:26:19.865Z,95468.00
2024-04-18T09:27:19.933Z,95470.00
2024-04-18T09:28:19.921Z,95470.00
2024-04-18T09:29:19.945Z,95473.00
2024-04-18T09:30:19.995Z,95474.00
2024-04-18T09:31:27.556Z,95475.00
2024-04-18T09:32:21.002Z,95473.00
2024-04-18T09:33:20.077Z,95476.00
2024-04-18T09:34:20.076Z,95476.00
2024-04-18T09:35:20.014Z,95481.00
2024-04-18T09:36:20.022Z,95480.00
2024-04-18T09:37:19.992Z,95483.00
2024-04-18T09:38:19.988Z,95487.00
2024-04-18T09:39:20.308Z,95489.00
2024-04-18T09:40:20.007Z,95491.00
2024-04-18T09:41:20.032Z,95491.00
2024-04-18T09:42:20.026Z,95492.00
2024-04-18T09:43:19.995Z,95491.00
2024-04-18T09:44:19.999Z,95492.00
2024-04-18T09:45:20.056Z,95496.00
2024-04-18T09:46:20.019Z,95500.00
2024-04-18T09:47:20.013Z,95503.00
2024-04-18T09:48:20.109Z,95506.00
2024-04-18T09:49:20.184Z,95507.00
2024-04-18T09:50:20.027Z,95506.00
2024-04-18T09:51:20.060Z,95508.00
2024-04-18T09:52:20.038Z,95508.00
2024-04-18T09:53:20.017Z,95511.00
2024-04-18T09:54:20.129Z,95512.00
2024-04-18T09:55:22.003Z,95515.00
2024-04-18T09:56:20.006Z,95513.00
2024-04-18T09:57:20.043Z,95516.00
2024-04-18T09:58:20.019Z,95515.00
2024-04-18T09:59:20.024Z,95518.00
2024-04-18T10:00:20.049Z,95516.00
2024-04-18T10:01:20.103Z,95519.00
2024-04-18T10:02:20.053Z,95520.00
2024-04-18T10:03:20.099Z,95522.00
2024-04-18T10:04:20.078Z,95521.00
2024-04-18T10:05:20.031Z,95521.00
2024-04-18T10:06:20.069Z,95523.00
2024-04-18T10:07:20.079Z,95524.00
2024-04-18T10:08:20.032Z,95523.00
2024-04-18T10:09:20.054Z,95522.00
2024-04-18T10:10:20.036Z,95522.00
2024-04-18T10:11:20.135Z,95522.00
2024-04-18T10:12:20.049Z,95520.00
2024-04-18T10:13:21.310Z,95520.00
2024-04-18T10:14:20.030Z,95521.00
2024-04-18T10:15:20.175Z,95524.00
2024-04-18T10:16:20.166Z,95521.00
2024-04-18T10:17:20.192Z,95526.00
2024-04-18T10:18:20.351Z,95523.00
2024-04-18T10:19:20.261Z,95524.00
2024-04-18T10:20:20.254Z,95525.00
2024-04-18T10:21:27.896Z,95527.00
2024-04-18T10:22:29.536Z,95529.00
2024-04-18T10:23:21.320Z,95527.00
2024-04-18T10:24:20.420Z,95528.00
2024-04-18T10:25:20.302Z,95529.00
2024-04-18T10:26:20.298Z,95527.00
2024-04-18T10:27:20.366Z,95527.00
2024-04-18T10:28:20.307Z,95528.00
2024-04-18T10:29:20.298Z,95528.00
2024-04-18T10:30:20.333Z,95530.00
2024-04-18T10:31:20.320Z,95526.00
2024-04-18T10:32:20.361Z,95527.00
2024-04-18T10:33:20.446Z,95527.00
2024-04-18T10:34:20.325Z,95528.00
2024-04-18T10:35:20.317Z,95527.00
2024-04-18T10:36:20.346Z,95528.00
2024-04-18T10:37:27.891Z,95529.00
2024-04-18T10:38:27.903Z,95532.00
2024-04-18T10:39:27.908Z,95532.00
2024-04-18T10:40:27.879Z,95532.00
2024-04-18T10:41:27.882Z,95533.00
2024-04-18T10:42:27.917Z,95531.00
2024-04-18T10:43:27.894Z,95532.00
2024-04-18T10:44:27.909Z,95531.00
2024-04-18T10:45:27.964Z,95532.00
2024-04-18T10:46:27.914Z,95531.00
2024-04-18T10:47:27.949Z,95532.00
2024-04-18T10:48:28.035Z,95532.00
2024-04-18T10:49:28.052Z,95531.00
2024-04-18T10:50:30.101Z,95532.00
2024-04-18T10:51:27.978Z,95533.00
2024-04-18T10:52:27.901Z,95530.00
2024-04-18T10:53:27.965Z,95531.00
2024-04-18T10:54:28.089Z,95529.00
2024-04-18T10:55:28.140Z,95530.00
2024-04-18T10:56:30.117Z,95532.00
2024-04-18T10:57:28.326Z,95529.00
2024-04-18T10:58:28.273Z,95531.00
2024-04-18T10:59:28.352Z,95527.00
2024-04-18T11:00:28.470Z,95528.00
2024-04-18T11:01:28.521Z,95528.00
2024-04-18T11:02:30.003Z,95529.00
2024-04-18T11:03:28.734Z,95527.00
2024-04-18T11:04:28.825Z,95529.00
2024-04-18T11:05:28.743Z,95527.00
2024-04-18T11:06:28.818Z,95527.00
2024-04-18T11:07:28.866Z,95526.00
2024-04-18T11:08:31.203Z,95528.00
2024-04-18T11:09:28.941Z,95529.00
2024-04-18T11:10:28.924Z,95529.00
2024-04-18T11:11:28.938Z,95532.00
2024-04-18T11:12:28.974Z,95531.00
2024-04-18T11:13:28.913Z,95533.00
2024-04-18T11:14:28.927Z,95531.00
2024-04-18T11:15:28.993Z,95531.00
2024-04-18T11:16:28.979Z,95532.00
2024-04-18T11:17:28.953Z,95532.00
2024-04-18T11:18:29.091Z,95529.00
2024-04-18T11:19:28.977Z,95531.00
2024-04-18T11:20:30.701Z,95533.00
2024-04-18T11:21:28.973Z,95534.00
2024-04-18T11:22:28.929Z,95531.00
2024-04-18T11:23:35.865Z,95533.00
2024-04-18T11:24:30.139Z,95534.00
2024-04-18T11:25:29.032Z,95533.00
2024-04-18T11:26:30.343Z,95536.00
2024-04-18T11:27:29.031Z,95537.00
2024-04-18T11:28:29.003Z,95539.00
2024-04-18T11:29:29.369Z,95539.00
2024-04-18T11:30:29.083Z,95540.00
2024-04-18T11:31:29.197Z,95540.00
2024-04-18T11:32:30.754Z,95541.00
2024-04-18T11:33:29.085Z,95540.00
2024-04-18T11:34:29.012Z,95539.00
2024-04-18T11:35:29.051Z,95534.00
2024-04-18T11:36:29.072Z,95540.00
2024-04-18T11:37:29.019Z,95534.00
2024-04-18T11:38:30.430Z,95535.00
2024-04-18T11:39:29.102Z,95535.00
2024-04-18T11:40:29.016Z,95532.00
2024-04-18T11:41:29.021Z,95532.00
2024-04-18T11:42:29.052Z,95531.00
2024-04-18T11:43:29.024Z,95530.00
2024-04-18T11:44:30.483Z,95529.00
2024-04-18T11:45:29.087Z,95530.00